Terminal Aerodrome Forecast
Issued by NWS Charleston, SC

Home | Current Version | Previous Version | Text Only | Print | Product List | Glossary On
Versions: 1 2 3 4 5 6 7 8 9 10 11 12 13 14 15
089
FTUS42 KCHS 040535
TAFCHS
TAF
KCHS 040535Z 0406/0506 04004KT P6SM BKN090
     FM041600 06009KT P6SM SCT030 OVC060
     FM042100 09009KT P6SM -RA SCT020 OVC035
     FM042300 10009KT 6SM -RA BR SCT015 BKN025=

USA.gov is the U.S. government's official web portal to all federal, state and local government web resources and services.